Time;durP1;ratioP1;P1;durP2;ratioP2;P2;SDS_P1;SDS_P2;PMS_P1;PMS_P2;Temp;Humidity;BMP_temperature;BMP_pressure;BME280_temperature;BME280_humidity;BME280_pressure;Samples;Min_cycle;Max_cycle;Signal;HPM_P1;HPM_P2
2024/04/13 00:01:09;;;;;;;14.27;5.65;;;17.70;99.90;;;;;;5404779;26;20027;-73
2024/04/13 00:03:35;;;;;;;10.18;4.75;;;17.60;99.90;;;;;;5442727;26;19998;-73
2024/04/13 00:06:01;;;;;;;13.80;5.63;;;17.70;99.90;;;;;;5455765;26;19990;-73
2024/04/13 00:08:26;;;;;;;11.88;5.45;;;17.70;99.90;;;;;;5403670;26;19998;-74
2024/04/13 00:10:52;;;;;;;14.20;5.63;;;17.50;99.90;;;;;;5420392;26;20009;-72
2024/04/13 00:13:18;;;;;;;14.02;5.57;;;17.60;99.90;;;;;;5408223;26;20354;-73
2024/04/13 00:15:57;;;;;;;20.50;6.93;;;17.60;99.90;;;;;;5432290;26;20002;-73
2024/04/13 00:18:23;;;;;;;17.35;5.43;;;17.60;99.90;;;;;;5440962;26;20025;-73
2024/04/13 00:20:48;;;;;;;17.73;6.05;;;17.50;99.90;;;;;;5454083;26;19994;-73
2024/04/13 00:23:15;;;;;;;15.27;5.35;;;17.40;99.90;;;;;;5443804;26;20021;-73
2024/04/13 00:25:40;;;;;;;12.73;5.32;;;17.40;99.90;;;;;;5481399;26;20010;-72
2024/04/13 00:28:07;;;;;;;14.70;5.82;;;17.40;99.90;;;;;;5487609;26;20078;-73
2024/04/13 00:30:33;;;;;;;21.85;5.68;;;17.40;99.90;;;;;;5464008;26;20009;-72
2024/04/13 00:33:00;;;;;;;13.07;5.68;;;17.30;99.90;;;;;;5440347;26;19999;-72
2024/04/13 00:35:26;;;;;;;16.75;6.07;;;17.20;99.90;;;;;;5407398;26;19998;-73
2024/04/13 00:37:52;;;;;;;12.98;5.93;;;17.20;99.90;;;;;;5431083;26;20511;-72
2024/04/13 00:40:17;;;;;;;17.42;6.20;;;17.20;99.90;;;;;;5391848;26;19998;-74
2024/04/13 00:42:43;;;;;;;17.85;6.75;;;17.20;99.90;;;;;;5478496;26;20018;-73
2024/04/13 00:45:09;;;;;;;13.25;6.28;;;17.20;99.90;;;;;;5486596;26;20020;-72
2024/04/13 00:47:37;;;;;;;11.68;6.22;;;17.10;99.90;;;;;;5444552;26;20003;-75
2024/04/13 00:50:10;;;;;;;16.73;6.53;;;17.20;99.90;;;;;;5446063;26;20126;-73
2024/04/13 00:52:43;;;;;;;18.33;6.22;;;17.20;99.90;;;;;;5378187;26;19995;-73
2024/04/13 00:55:09;;;;;;;16.27;6.22;;;17.10;99.90;;;;;;5454163;26;20304;-74
2024/04/13 00:57:39;;;;;;;18.27;6.13;;;17.10;99.90;;;;;;5415527;26;20336;-75
2024/04/13 01:00:05;;;;;;;17.60;6.80;;;17.10;99.90;;;;;;5454324;26;19994;-74
2024/04/13 01:02:31;;;;;;;14.50;5.97;;;17.20;99.90;;;;;;5436468;26;20006;-73
2024/04/13 01:04:57;;;;;;;17.20;6.90;;;17.10;99.90;;;;;;5465900;26;19999;-74
2024/04/13 01:07:24;;;;;;;22.08;6.90;;;17.20;99.90;;;;;;5419884;26;20005;-73
2024/04/13 01:09:50;;;;;;;15.65;7.35;;;17.40;99.90;;;;;;5454075;26;20014;-73
2024/04/13 01:12:17;;;;;;;19.33;6.90;;;17.30;99.90;;;;;;5455125;26;20541;-73
2024/04/13 01:14:44;;;;;;;19.40;7.20;;;17.30;99.90;;;;;;5393680;26;20439;-74
2024/04/13 01:17:10;;;;;;;15.00;6.72;;;17.30;99.90;;;;;;5443243;26;20073;-73
2024/04/13 01:19:37;;;;;;;12.57;6.43;;;17.30;99.90;;;;;;5448959;26;20009;-74
2024/04/13 01:22:03;;;;;;;17.05;7.30;;;17.20;99.90;;;;;;5457336;26;19994;-72
2024/04/13 01:24:30;;;;;;;15.73;7.88;;;17.10;99.90;;;;;;5447007;26;20166;-74
2024/04/13 01:26:57;;;;;;;14.23;7.13;;;16.90;99.90;;;;;;5444224;26;20001;-72
2024/04/13 01:29:23;;;;;;;14.45;7.47;;;16.90;99.90;;;;;;5447774;26;20338;-73
2024/04/13 01:31:49;;;;;;;15.55;7.65;;;16.90;99.90;;;;;;5409025;26;20003;-72
2024/04/13 01:34:14;;;;;;;15.43;7.18;;;16.90;99.90;;;;;;5481445;26;20002;-73
2024/04/13 01:36:41;;;;;;;14.18;6.72;;;16.90;99.90;;;;;;5363105;26;20435;-73
2024/04/13 01:39:09;;;;;;;16.63;7.20;;;16.80;99.90;;;;;;5452935;26;20010;-73
2024/04/13 01:41:42;;;;;;;17.20;7.63;;;16.90;99.90;;;;;;5445682;26;20024;-73
2024/04/13 01:44:08;;;;;;;12.70;7.15;;;17.00;99.90;;;;;;5480478;26;19994;-73
2024/04/13 01:46:35;;;;;;;15.88;7.05;;;17.10;99.90;;;;;;5427336;26;20066;-74
2024/04/13 01:49:04;;;;;;;21.42;8.00;;;17.20;99.90;;;;;;5423178;26;19995;-74
2024/04/13 01:51:36;;;;;;;16.05;6.63;;;17.20;99.90;;;;;;5384305;26;20384;-73
2024/04/13 01:54:02;;;;;;;17.15;6.47;;;17.20;99.90;;;;;;5472683;26;20002;-73
2024/04/13 01:56:28;;;;;;;20.23;7.15;;;17.10;99.90;;;;;;5445355;26;20035;-73
2024/04/13 01:58:54;;;;;;;18.50;7.97;;;17.00;99.90;;;;;;5434085;26;20108;-73
2024/04/13 02:01:20;;;;;;;18.33;7.35;;;17.00;99.90;;;;;;5430753;26;19998;-74
2024/04/13 02:03:47;;;;;;;19.05;7.55;;;17.10;99.90;;;;;;5442241;26;20060;-75
2024/04/13 02:06:12;;;;;;;14.40;6.25;;;17.10;99.90;;;;;;5395621;26;19995;-73
2024/04/13 02:08:38;;;;;;;19.40;7.22;;;17.10;99.90;;;;;;5473981;26;19994;-73
2024/04/13 02:11:06;;;;;;;20.45;7.53;;;17.10;99.90;;;;;;5445007;26;20423;-73
2024/04/13 02:13:33;;;;;;;11.88;6.25;;;17.20;99.90;;;;;;5433509;26;20008;-73
2024/04/13 02:15:59;;;;;;;14.55;6.90;;;17.20;99.90;;;;;;5440874;26;19998;-73
2024/04/13 02:18:25;;;;;;;14.25;6.38;;;17.20;99.90;;;;;;5428240;26;20003;-73
2024/04/13 02:20:51;;;;;;;12.68;6.40;;;17.30;99.90;;;;;;5453045;26;20014;-72
2024/04/13 02:23:16;;;;;;;18.70;6.50;;;17.10;99.90;;;;;;5436172;26;20013;-74
2024/04/13 02:25:51;;;;;;;17.67;7.13;;;17.10;99.90;;;;;;5415113;26;20442;-72
2024/04/13 02:28:17;;;;;;;14.10;6.57;;;17.10;99.90;;;;;;5419983;26;20084;-75
2024/04/13 02:30:43;;;;;;;13.70;6.55;;;17.10;99.90;;;;;;5424949;26;20014;-75
2024/04/13 02:33:09;;;;;;;16.88;5.95;;;17.00;99.90;;;;;;5422060;26;19998;-73
2024/04/13 02:35:36;;;;;;;15.23;6.47;;;17.10;99.90;;;;;;5464129;26;20315;-73
2024/04/13 02:38:03;;;;;;;17.00;6.35;;;17.00;99.90;;;;;;5464623;26;20003;-72
2024/04/13 02:40:28;;;;;;;12.23;5.55;;;17.00;99.90;;;;;;5471767;26;20008;-75
2024/04/13 02:42:54;;;;;;;10.27;6.07;;;17.00;99.90;;;;;;5409353;26;20549;-74
2024/04/13 02:45:20;;;;;;;11.45;6.55;;;16.90;99.90;;;;;;5421211;26;20014;-73
2024/04/13 02:47:48;;;;;;;13.93;5.10;;;16.90;99.90;;;;;;5433410;26;19998;-73
2024/04/13 02:50:17;;;;;;;14.43;5.93;;;16.80;99.90;;;;;;5453417;26;20046;-73
2024/04/13 02:52:42;;;;;;;11.70;5.65;;;16.90;99.90;;;;;;5450753;26;20010;-73
2024/04/13 02:55:09;;;;;;;13.48;6.22;;;17.00;99.90;;;;;;5428400;26;20002;-73
2024/04/13 02:57:35;;;;;;;15.20;6.13;;;16.90;99.90;;;;;;5436843;26;19994;-75
2024/04/13 03:00:01;;;;;;;9.00;5.28;;;16.90;99.90;;;;;;5453662;26;20012;-73
2024/04/13 03:02:27;;;;;;;10.90;5.07;;;16.90;99.90;;;;;;5394639;26;19999;-73
2024/04/13 03:04:53;;;;;;;10.73;5.00;;;16.90;99.90;;;;;;5422378;26;20006;-73
2024/04/13 03:07:19;;;;;;;13.20;5.38;;;17.00;99.90;;;;;;5425071;26;20825;-73
2024/04/13 03:09:47;;;;;;;13.65;5.88;;;16.90;99.90;;;;;;5431129;26;19999;-73
2024/04/13 03:12:15;;;;;;;14.82;5.47;;;16.90;99.90;;;;;;5464016;26;19995;-73
2024/04/13 03:14:43;;;;;;;9.82;5.10;;;17.00;99.90;;;;;;5421276;26;20382;-72
2024/04/13 03:17:09;;;;;;;11.30;5.78;;;17.00;99.90;;;;;;5454938;26;20070;-72
2024/04/13 03:19:35;;;;;;;14.13;5.60;;;17.10;99.90;;;;;;5486969;26;20010;-72
2024/04/13 03:22:02;;;;;;;14.57;5.18;;;17.10;99.90;;;;;;5426925;26;20068;-73
2024/04/13 03:24:28;;;;;;;12.98;5.90;;;17.00;99.90;;;;;;5373210;26;20010;-75
2024/04/13 03:26:54;;;;;;;13.43;5.93;;;17.00;99.90;;;;;;5441183;26;20071;-73
2024/04/13 03:29:19;;;;;;;14.73;5.40;;;17.00;99.90;;;;;;5396105;26;20005;-74
2024/04/13 03:31:45;;;;;;;12.10;5.10;;;17.10;99.90;;;;;;5437491;26;20081;-73
2024/04/13 03:34:10;;;;;;;17.70;6.28;;;17.20;99.90;;;;;;5458873;26;20412;-73
2024/04/13 03:36:36;;;;;;;10.15;5.32;;;17.10;99.90;;;;;;5469093;26;19998;-73
2024/04/13 03:39:02;;;;;;;12.38;5.78;;;17.00;99.90;;;;;;5452232;26;20453;-73
2024/04/13 03:41:28;;;;;;;16.75;5.88;;;17.00;99.90;;;;;;5460764;26;19999;-73
2024/04/13 03:43:54;;;;;;;13.45;5.47;;;17.00;99.90;;;;;;5407503;26;20083;-73
2024/04/13 03:46:20;;;;;;;15.85;5.70;;;17.00;99.90;;;;;;5472394;26;20010;-72
2024/04/13 03:48:46;;;;;;;17.17;5.63;;;17.00;99.90;;;;;;5443559;26;20010;-72
2024/04/13 03:51:13;;;;;;;16.02;6.00;;;16.90;99.90;;;;;;5422708;26;20026;-72
2024/04/13 03:53:38;;;;;;;15.10;5.70;;;17.00;99.90;;;;;;5450354;26;20034;-74
2024/04/13 03:56:04;;;;;;;12.45;5.78;;;17.10;99.90;;;;;;5447481;26;20083;-73
2024/04/13 03:58:30;;;;;;;14.77;5.95;;;17.10;99.90;;;;;;5469248;26;19998;-72
2024/04/13 04:00:57;;;;;;;13.75;6.35;;;17.10;99.90;;;;;;5426946;26;19999;-73
2024/04/13 04:03:23;;;;;;;14.30;6.22;;;17.10;99.90;;;;;;5437259;26;20013;-73
2024/04/13 04:05:52;;;;;;;13.90;5.95;;;17.10;99.90;;;;;;5485586;26;19995;-73
2024/04/13 04:08:18;;;;;;;13.05;5.80;;;17.10;99.90;;;;;;5460024;26;19999;-73
2024/04/13 04:10:44;;;;;;;18.60;6.90;;;17.00;99.90;;;;;;5421018;26;20512;-73
2024/04/13 04:13:10;;;;;;;16.35;6.20;;;17.00;99.90;;;;;;5457048;26;20003;-73
2024/04/13 04:15:36;;;;;;;14.07;5.75;;;17.00;99.90;;;;;;5449312;26;20079;-73
2024/04/13 04:18:05;;;;;;;11.88;5.65;;;16.90;99.90;;;;;;5378481;26;20424;-72
2024/04/13 04:20:31;;;;;;;8.75;5.25;;;17.00;99.90;;;;;;5444013;26;20034;-73
2024/04/13 04:22:57;;;;;;;14.70;5.75;;;16.90;99.90;;;;;;5380184;26;20460;-74
2024/04/13 04:25:23;;;;;;;12.45;5.68;;;16.80;99.90;;;;;;5456369;26;20009;-72
2024/04/13 04:27:49;;;;;;;10.68;5.47;;;16.70;99.90;;;;;;5490032;26;19998;-73
2024/04/13 04:30:15;;;;;;;12.25;5.80;;;16.80;99.90;;;;;;5439263;26;20002;-73
2024/04/13 04:32:42;;;;;;;17.80;6.15;;;16.90;99.90;;;;;;5420067;26;20096;-72
2024/04/13 04:35:08;;;;;;;10.38;5.38;;;16.90;99.90;;;;;;5426208;26;20324;-72
2024/04/13 04:37:34;;;;;;;12.10;4.80;;;16.90;99.90;;;;;;5443306;26;20005;-75
2024/04/13 04:40:03;;;;;;;16.00;5.90;;;16.90;99.90;;;;;;5447416;26;19995;-73
2024/04/13 04:42:29;;;;;;;12.10;4.97;;;16.70;99.90;;;;;;5411972;26;20010;-73
2024/04/13 04:44:55;;;;;;;11.88;5.57;;;16.70;99.90;;;;;;5445024;26;20007;-73
2024/04/13 04:47:21;;;;;;;15.10;5.78;;;16.70;99.90;;;;;;5440789;26;20003;-73
2024/04/13 04:49:47;;;;;;;10.93;5.30;;;16.70;99.90;;;;;;5466653;26;20440;-74
2024/04/13 04:52:13;;;;;;;13.52;5.18;;;16.80;99.90;;;;;;5464768;26;20047;-74
2024/04/13 04:54:39;;;;;;;12.02;5.00;;;16.60;99.90;;;;;;5436667;26;19999;-74
2024/04/13 04:57:05;;;;;;;13.27;5.28;;;16.60;99.90;;;;;;5402630;26;20014;-75
2024/04/13 04:59:31;;;;;;;11.02;4.75;;;16.60;99.90;;;;;;5464640;26;20013;-73
2024/04/13 05:01:56;;;;;;;16.25;5.00;;;16.60;99.90;;;;;;5487242;26;20010;-75
2024/04/13 05:04:29;;;;;;;16.50;6.00;;;16.60;99.90;;;;;;5432880;26;20077;-73
2024/04/13 05:06:54;;;;;;;12.98;5.55;;;16.50;99.90;;;;;;5381631;26;20009;-73
2024/04/13 05:09:20;;;;;;;16.30;6.57;;;16.50;99.90;;;;;;5424384;26;20002;-73
2024/04/13 05:11:46;;;;;;;11.30;5.07;;;16.60;99.90;;;;;;5416185;26;20056;-73
2024/04/13 05:14:16;;;;;;;7.40;4.32;;;16.60;99.90;;;;;;5399435;26;20042;-74
2024/04/13 05:16:42;;;;;;;13.75;5.53;;;16.50;99.90;;;;;;5491827;26;20002;-72
2024/04/13 05:19:08;;;;;;;11.52;5.18;;;16.60;99.90;;;;;;5459533;26;19998;-72
2024/04/13 05:21:34;;;;;;;14.93;5.63;;;16.60;99.90;;;;;;5468748;26;20017;-73
2024/04/13 05:23:59;;;;;;;11.73;4.40;;;16.60;99.90;;;;;;5435274;26;20013;-73
2024/04/13 05:26:25;;;;;;;15.35;5.20;;;16.70;99.90;;;;;;5499413;26;19998;-73
2024/04/13 05:28:51;;;;;;;11.75;5.88;;;16.80;99.90;;;;;;5428860;26;20013;-72
2024/04/13 05:31:17;;;;;;;13.85;7.30;;;16.70;99.90;;;;;;5458742;26;20016;-73
2024/04/13 05:33:44;;;;;;;12.23;6.13;;;16.80;99.90;;;;;;5422401;26;19995;-72
2024/04/13 05:36:10;;;;;;;15.02;6.47;;;16.80;99.90;;;;;;5416138;26;20012;-73
2024/04/13 05:38:36;;;;;;;16.05;7.20;;;16.70;99.90;;;;;;5423503;26;19998;-73
2024/04/13 05:41:01;;;;;;;15.05;6.80;;;16.70;99.90;;;;;;5436531;26;20013;-74
2024/04/13 05:43:27;;;;;;;15.50;6.22;;;16.70;99.90;;;;;;5458622;26;20011;-72
2024/04/13 05:45:53;;;;;;;16.92;7.15;;;16.80;99.90;;;;;;5454190;26;20003;-74
2024/04/13 05:48:20;;;;;;;17.45;6.80;;;16.80;99.90;;;;;;5431086;26;20003;-75
2024/04/13 05:50:56;;;;;;;14.40;6.45;;;16.80;99.90;;;;;;5395836;26;19995;-72
2024/04/13 05:53:23;;;;;;;13.45;7.15;;;16.70;99.90;;;;;;5474852;26;19998;-73
2024/04/13 05:55:49;;;;;;;16.15;7.20;;;16.60;99.90;;;;;;5428047;26;20071;-72
2024/04/13 05:58:15;;;;;;;12.25;6.82;;;16.60;99.90;;;;;;5457465;26;20022;-72
2024/04/13 06:00:45;;;;;;;11.57;6.50;;;16.60;99.90;;;;;;5476686;26;20320;-73
2024/04/13 06:03:12;;;;;;;11.82;6.10;;;16.60;99.90;;;;;;5424979;26;19999;-73
2024/04/13 06:05:37;;;;;;;13.18;6.15;;;16.60;99.90;;;;;;5430044;26;20003;-73
2024/04/13 06:08:03;;;;;;;15.05;5.72;;;16.70;99.90;;;;;;5427043;26;19999;-74
2024/04/13 06:10:29;;;;;;;12.90;6.25;;;16.70;99.90;;;;;;5426034;26;20006;-73
2024/04/13 06:12:55;;;;;;;13.38;6.20;;;16.80;99.90;;;;;;5430571;26;20014;-74
2024/04/13 06:15:21;;;;;;;10.80;6.03;;;16.80;99.90;;;;;;5429435;26;19995;-74
2024/04/13 06:17:47;;;;;;;11.20;6.35;;;16.80;99.90;;;;;;5421480;26;20363;-74
2024/04/13 06:20:12;;;;;;;15.85;7.43;;;16.70;99.90;;;;;;5430588;26;19998;-74
2024/04/13 06:22:38;;;;;;;12.98;7.28;;;16.70;99.90;;;;;;5424413;26;20005;-74
2024/04/13 06:25:10;;;;;;;15.85;6.45;;;16.80;99.90;;;;;;5421695;26;20006;-73
2024/04/13 06:27:36;;;;;;;12.15;6.90;;;16.80;99.90;;;;;;5457689;26;20010;-73
2024/04/13 06:30:02;;;;;;;13.45;7.30;;;16.90;99.90;;;;;;5424689;26;20001;-72
2024/04/13 06:32:28;;;;;;;16.15;6.70;;;17.10;99.90;;;;;;5451859;26;20057;-74
2024/04/13 06:34:53;;;;;;;16.17;7.15;;;17.20;99.90;;;;;;5423361;26;20005;-73
2024/04/13 06:37:19;;;;;;;12.38;6.45;;;17.20;99.90;;;;;;5452615;26;20008;-75
2024/04/13 06:39:44;;;;;;;14.23;6.53;;;17.20;99.90;;;;;;5429375;26;20733;-74
2024/04/13 06:42:10;;;;;;;17.00;7.18;;;17.30;99.90;;;;;;5447040;26;20002;-72
2024/04/13 06:44:36;;;;;;;13.95;6.57;;;17.40;99.90;;;;;;5453781;26;20009;-73
2024/04/13 06:47:02;;;;;;;14.90;6.75;;;17.50;99.90;;;;;;5447347;26;20332;-72
2024/04/13 06:49:28;;;;;;;20.70;7.40;;;17.40;99.90;;;;;;5394700;26;19995;-74
2024/04/13 06:51:54;;;;;;;20.00;7.53;;;17.40;99.90;;;;;;5393182;26;20007;-73
2024/04/13 06:54:20;;;;;;;16.92;6.38;;;17.50;99.90;;;;;;5402680;26;20002;-73
2024/04/13 06:56:45;;;;;;;14.65;6.43;;;17.40;99.90;;;;;;5415845;26;20862;-77
2024/04/13 06:59:12;;;;;;;14.15;6.95;;;17.40;99.90;;;;;;5424378;26;20507;-72
2024/04/13 07:01:37;;;;;;;19.75;7.38;;;17.60;99.90;;;;;;5450131;26;19995;-72
2024/04/13 07:04:03;;;;;;;12.50;6.55;;;17.70;99.90;;;;;;5393551;26;19995;-72
2024/04/13 07:06:31;;;;;;;15.77;6.15;;;17.70;99.90;;;;;;5452517;26;20020;-72
2024/04/13 07:08:56;;;;;;;14.75;6.35;;;17.90;99.90;;;;;;5446520;26;20030;-75
2024/04/13 07:11:22;;;;;;;14.05;6.38;;;17.90;99.90;;;;;;5415131;26;20408;-72
2024/04/13 07:13:47;;;;;;;14.77;6.13;;;17.90;99.90;;;;;;5433666;26;20002;-73
2024/04/13 07:16:13;;;;;;;15.52;6.40;;;17.80;99.90;;;;;;5406702;26;19998;-73
2024/04/13 07:18:39;;;;;;;13.80;5.95;;;17.90;99.90;;;;;;5409333;26;20017;-72
2024/04/13 07:21:05;;;;;;;12.25;6.22;;;17.80;99.90;;;;;;5414245;26;19998;-75
2024/04/13 07:23:30;;;;;;;15.55;5.30;;;17.90;99.90;;;;;;5460114;26;19994;-73
2024/04/13 07:25:59;;;;;;;19.25;6.35;;;18.00;99.90;;;;;;5443953;26;20042;-72
2024/04/13 07:28:25;;;;;;;14.35;5.45;;;18.20;99.90;;;;;;5482075;26;20006;-73
2024/04/13 07:30:51;;;;;;;13.20;5.15;;;18.20;99.90;;;;;;5432192;26;20003;-77
2024/04/13 07:33:17;;;;;;;12.48;4.95;;;18.10;99.90;;;;;;5398866;26;19999;-71
2024/04/13 07:35:42;;;;;;;11.18;5.45;;;18.20;99.90;;;;;;5380919;26;20006;-73
2024/04/13 07:38:09;;;;;;;11.65;5.43;;;18.30;99.90;;;;;;5468748;26;20014;-72
2024/04/13 07:40:35;;;;;;;11.48;5.85;;;18.30;99.90;;;;;;5454574;26;19999;-74
2024/04/13 07:43:02;;;;;;;13.00;5.35;;;18.30;99.90;;;;;;5420954;26;20034;-72
2024/04/13 07:45:28;;;;;;;11.38;5.47;;;18.30;99.90;;;;;;5459069;26;20009;-74
2024/04/13 07:47:53;;;;;;;14.90;4.97;;;18.20;99.90;;;;;;5407532;26;20811;-72
2024/04/13 07:50:19;;;;;;;10.40;4.50;;;18.30;99.90;;;;;;5378586;26;19998;-72
2024/04/13 07:52:45;;;;;;;11.40;5.07;;;18.40;99.90;;;;;;5408012;26;19994;-73
2024/04/13 07:55:10;;;;;;;7.40;4.53;;;18.60;99.90;;;;;;5422419;26;20007;-72
2024/04/13 07:57:36;;;;;;;10.05;4.80;;;18.70;99.90;;;;;;5420755;26;20002;-72
2024/04/13 08:00:03;;;;;;;12.32;5.28;;;18.70;99.90;;;;;;5460795;26;20009;-71
2024/04/13 08:02:29;;;;;;;8.75;5.10;;;18.80;99.90;;;;;;5430993;26;20137;-73
2024/04/13 08:04:55;;;;;;;11.95;5.10;;;18.90;99.90;;;;;;5458629;26;20006;-72
2024/04/13 08:07:20;;;;;;;9.55;4.95;;;18.90;99.90;;;;;;5389135;26;20006;-71
2024/04/13 08:09:46;;;;;;;15.43;4.75;;;19.00;99.90;;;;;;5478583;26;20263;-71
2024/04/13 08:12:11;;;;;;;10.15;4.93;;;19.10;99.90;;;;;;5390731;26;19995;-72
2024/04/13 08:14:37;;;;;;;9.00;4.60;;;19.30;99.90;;;;;;5419582;26;19994;-72
2024/04/13 08:17:03;;;;;;;10.18;5.05;;;19.40;99.90;;;;;;5451151;26;20007;-71
2024/04/13 08:19:29;;;;;;;10.27;4.20;;;19.60;99.90;;;;;;5393304;26;20009;-72
2024/04/13 08:21:55;;;;;;;10.80;5.10;;;19.90;99.90;;;;;;5453737;26;19998;-72
2024/04/13 08:24:21;;;;;;;13.50;5.35;;;19.90;99.90;;;;;;5460929;26;20005;-72
2024/04/13 08:26:46;;;;;;;14.10;6.00;;;19.90;99.90;;;;;;5396233;26;20021;-72
2024/04/13 08:29:12;;;;;;;13.85;5.18;;;20.00;99.90;;;;;;5466163;26;20013;-72
2024/04/13 08:31:38;;;;;;;12.13;4.53;;;20.10;99.90;;;;;;5428801;26;20034;-72
2024/04/13 08:34:05;;;;;;;18.20;5.43;;;20.20;99.90;;;;;;5465538;26;20002;-71
2024/04/13 08:36:31;;;;;;;13.32;5.55;;;20.30;99.90;;;;;;5392669;26;20017;-73
2024/04/13 08:38:57;;;;;;;7.18;4.38;;;20.40;99.90;;;;;;5423053;26;19999;-72
2024/04/13 08:41:37;;;;;;;7.03;4.30;;;20.50;99.90;;;;;;5455198;26;20055;-72
2024/04/13 08:44:03;;;;;;;10.45;4.30;;;20.40;99.90;;;;;;5444659;26;20002;-73
2024/04/13 08:46:31;;;;;;;11.23;4.68;;;20.30;99.90;;;;;;5457021;26;20007;-71
2024/04/13 08:48:58;;;;;;;12.13;4.78;;;20.40;99.90;;;;;;5434127;26;20438;-73
2024/04/13 08:51:25;;;;;;;8.93;4.70;;;20.50;99.90;;;;;;5426823;26;20594;-71
2024/04/13 08:53:51;;;;;;;13.40;4.20;;;20.80;99.90;;;;;;5457927;26;20017;-72
2024/04/13 08:56:20;;;;;;;9.85;4.57;;;21.10;99.90;;;;;;5441383;26;20007;-71
2024/04/13 08:58:46;;;;;;;10.82;4.50;;;21.10;99.90;;;;;;5432893;26;20003;-71
2024/04/13 09:01:17;;;;;;;13.25;4.53;;;21.00;99.90;;;;;;5419126;26;20007;-71
2024/04/13 09:03:44;;;;;;;10.00;4.88;;;21.20;99.90;;;;;;5462486;26;20007;-71
2024/04/13 09:06:11;;;;;;;16.77;5.18;;;21.30;99.90;;;;;;5414075;26;20388;-71
2024/04/13 09:08:39;;;;;;;10.55;5.03;;;21.20;99.90;;;;;;5429844;26;20010;-72
2024/04/13 09:11:11;;;;;;;9.82;4.68;;;21.30;99.90;;;;;;5452293;26;20450;-74
2024/04/13 09:13:38;;;;;;;13.68;4.50;;;21.40;99.90;;;;;;5477573;26;20013;-74
2024/04/13 09:16:06;;;;;;;11.23;3.88;;;21.40;99.90;;;;;;5484063;26;20053;-73
2024/04/13 09:18:33;;;;;;;9.93;3.92;;;21.50;99.90;;;;;;5443370;26;20447;-73
2024/04/13 09:21:01;;;;;;;12.30;3.40;;;21.60;99.90;;;;;;5451058;26;20066;-72
2024/04/13 09:23:28;;;;;;;9.52;4.15;;;21.90;99.90;;;;;;5476649;26;20023;-72
2024/04/13 09:26:04;;;;;;;9.70;3.65;;;22.30;99.90;;;;;;5422742;26;19994;-72
2024/04/13 09:28:44;;;;;;;7.80;3.50;;;22.60;99.90;;;;;;5423506;26;20148;-71
2024/04/13 09:31:11;;;;;;;15.75;4.00;;;22.70;99.90;;;;;;5433292;26;20009;-73
2024/04/13 09:33:40;;;;;;;7.45;2.85;;;23.00;99.90;;;;;;5410314;26;19998;-73
2024/04/13 09:36:08;;;;;;;9.40;3.38;;;23.30;99.90;;;;;;5475097;26;20075;-72
2024/04/13 09:38:35;;;;;;;8.05;3.95;;;23.20;99.90;;;;;;5488398;26;20013;-76
2024/04/13 09:41:01;;;;;;;8.45;3.38;;;23.30;99.90;;;;;;5438126;26;20006;-73
2024/04/13 09:43:27;;;;;;;8.75;3.30;;;23.50;99.90;;;;;;5411970;26;20409;-73
2024/04/13 09:46:02;;;;;;;12.32;3.40;;;23.60;99.90;;;;;;5425880;26;20009;-72
2024/04/13 09:48:28;;;;;;;15.30;4.03;;;24.10;99.90;;;;;;5432741;26;20009;-72
2024/04/13 09:50:55;;;;;;;9.73;3.55;;;24.40;99.90;;;;;;5437709;26;20440;-72
2024/04/13 09:53:21;;;;;;;11.82;3.63;;;24.50;99.90;;;;;;5432274;26;20435;-72
2024/04/13 09:55:47;;;;;;;11.48;3.63;;;24.60;99.90;;;;;;5442434;26;20006;-72
2024/04/13 09:58:14;;;;;;;9.32;3.35;;;24.80;99.90;;;;;;5422127;26;19998;-71
2024/04/13 10:00:43;;;;;;;9.52;3.75;;;25.20;99.90;;;;;;5448571;26;20013;-73
2024/04/13 10:03:15;;;;;;;7.25;2.95;;;25.50;99.90;;;;;;5422248;26;19998;-72
2024/04/13 10:05:43;;;;;;;7.55;3.00;;;25.60;99.90;;;;;;5425919;26;20003;-73
2024/04/13 10:08:10;;;;;;;6.47;3.33;;;25.80;99.90;;;;;;5409202;26;20344;-72
2024/04/13 10:10:49;;;;;;;12.18;3.55;;;25.90;99.90;;;;;;5420581;26;19998;-72
2024/04/13 10:13:22;;;;;;;11.68;3.53;;;25.90;99.90;;;;;;5474551;26;20311;-72
2024/04/13 10:15:48;;;;;;;10.40;3.13;;;26.00;99.90;;;;;;5473077;26;19995;-72
2024/04/13 10:18:16;;;;;;;6.45;3.45;;;26.60;99.90;;;;;;5478480;26;20021;-72
2024/04/13 10:20:41;;;;;;;11.50;3.85;;;27.40;99.90;;;;;;5425245;26;20335;-72
2024/04/13 10:23:12;;;;;;;11.05;3.78;;;28.10;99.90;;;;;;5445893;26;19998;-74
2024/04/13 10:25:37;;;;;;;7.35;2.80;;;29.00;99.90;;;;;;5489545;26;20445;-72
2024/04/13 10:28:10;;;;;;;10.90;3.30;;;29.30;99.40;;;;;;5443227;26;19998;-72
2024/04/13 10:30:45;;;;;;;5.85;3.10;;;29.00;98.80;;;;;;5391159;26;20006;-73
2024/04/13 10:33:38;;;;;;;6.95;3.25;;;28.60;98.90;;;;;;5429053;26;20006;-73
2024/04/13 10:36:07;;;;;;;7.50;3.10;;;28.60;98.70;;;;;;5479160;26;20330;-72
2024/04/13 10:38:36;;;;;;;5.72;2.47;;;28.90;98.50;;;;;;5460301;26;19994;-71
2024/04/13 10:41:03;;;;;;;12.38;3.05;;;28.60;98.30;;;;;;5432449;26;20003;-72
2024/04/13 10:43:30;;;;;;;9.00;2.42;;;27.90;98.60;;;;;;5439768;26;20002;-73
2024/04/13 10:45:58;;;;;;;8.30;3.15;;;28.10;98.50;;;;;;5401876;26;20004;-72
2024/04/13 10:48:27;;;;;;;5.78;3.03;;;27.90;98.60;;;;;;5457616;26;19998;-71
2024/04/13 10:50:55;;;;;;;7.45;2.78;;;28.00;98.60;;;;;;5456676;26;20030;-72
2024/04/13 10:53:25;;;;;;;8.02;2.78;;;27.90;98.60;;;;;;5457804;26;20010;-71
2024/04/13 10:55:51;;;;;;;11.30;3.17;;;28.20;98.30;;;;;;5476666;26;20038;-71
2024/04/13 10:58:16;;;;;;;8.35;3.05;;;28.20;98.00;;;;;;5448367;26;19994;-71
2024/04/13 11:00:46;;;;;;;11.55;3.25;;;28.70;97.80;;;;;;5450053;26;19995;-72
2024/04/13 11:03:12;;;;;;;7.85;3.17;;;28.80;97.60;;;;;;5460428;26;19999;-72
2024/04/13 11:05:39;;;;;;;9.25;2.80;;;29.00;97.40;;;;;;5430571;26;20007;-71
2024/04/13 11:08:08;;;;;;;6.22;2.70;;;28.90;96.90;;;;;;5428513;26;20003;-72
2024/04/13 11:10:35;;;;;;;6.65;2.83;;;28.90;97.00;;;;;;5399445;26;20451;-73
2024/04/13 11:13:02;;;;;;;8.18;2.95;;;29.10;96.60;;;;;;5478361;26;20009;-72
2024/04/13 11:15:29;;;;;;;8.13;2.72;;;29.40;96.60;;;;;;5428608;26;20458;-72
2024/04/13 11:17:54;;;;;;;7.60;2.95;;;29.10;96.40;;;;;;5468181;26;20003;-71
2024/04/13 11:20:25;;;;;;;8.57;3.17;;;28.80;96.70;;;;;;5454972;26;20021;-72
2024/04/13 11:22:51;;;;;;;7.47;2.88;;;29.60;96.40;;;;;;5455009;26;20343;-71
2024/04/13 11:25:17;;;;;;;14.57;3.00;;;29.80;95.90;;;;;;5398101;26;20002;-72
2024/04/13 11:27:44;;;;;;;5.60;2.67;;;29.80;95.60;;;;;;5454107;26;19998;-71
2024/04/13 11:30:11;;;;;;;15.23;2.88;;;29.70;95.50;;;;;;5407011;26;19998;-72
2024/04/13 11:32:37;;;;;;;5.75;2.92;;;29.30;95.50;;;;;;5456962;26;20425;-72
2024/04/13 11:35:03;;;;;;;10.80;2.97;;;29.60;95.40;;;;;;5414637;26;19999;-72
2024/04/13 11:37:29;;;;;;;9.23;3.03;;;29.60;95.20;;;;;;5451608;26;19999;-72
2024/04/13 11:39:55;;;;;;;6.35;2.40;;;29.30;95.50;;;;;;5404856;26;20079;-71
2024/04/13 11:42:21;;;;;;;9.38;2.70;;;29.40;95.20;;;;;;5402740;26;20003;-72
2024/04/13 11:44:49;;;;;;;9.30;2.80;;;29.00;95.70;;;;;;5446045;26;20007;-72
2024/04/13 11:47:15;;;;;;;6.25;2.78;;;29.30;95.50;;;;;;5445992;26;20013;-74
2024/04/13 11:49:42;;;;;;;7.80;2.58;;;29.80;95.20;;;;;;5478105;26;20006;-72
2024/04/13 11:52:11;;;;;;;8.77;3.03;;;30.30;95.00;;;;;;5463905;26;20070;-73
2024/04/13 11:54:37;;;;;;;7.90;2.72;;;30.30;94.40;;;;;;5490886;26;20015;-72
2024/04/13 11:57:12;;;;;;;8.48;2.88;;;30.60;94.20;;;;;;5427946;26;20003;-72
2024/04/13 11:59:39;;;;;;;6.65;2.80;;;30.70;94.10;;;;;;5439612;26;20025;-71
2024/04/13 12:02:05;;;;;;;7.45;2.58;;;29.90;94.20;;;;;;5450530;26;20046;-73
2024/04/13 12:04:31;;;;;;;5.22;2.38;;;29.50;94.80;;;;;;5443334;26;20052;-73
2024/04/13 12:06:57;;;;;;;6.53;2.78;;;30.60;94.00;;;;;;5448298;26;20044;-74
2024/04/13 12:09:24;;;;;;;8.07;1.88;;;30.80;93.80;;;;;;5468855;26;20382;-73
2024/04/13 12:11:49;;;;;;;6.40;2.38;;;30.70;93.70;;;;;;5455744;26;20018;-73
2024/04/13 12:14:15;;;;;;;7.55;2.50;;;30.70;93.60;;;;;;5401061;26;20355;-72
2024/04/13 12:16:44;;;;;;;7.15;2.38;;;31.20;93.70;;;;;;5398315;26;20343;-73
2024/04/13 12:19:09;;;;;;;7.25;2.70;;;31.50;93.10;;;;;;5382552;26;20451;-72
2024/04/13 12:21:36;;;;;;;5.10;2.45;;;31.00;93.00;;;;;;5391748;26;20021;-73
2024/04/13 12:24:03;;;;;;;7.53;2.72;;;30.90;92.70;;;;;;5418922;26;20013;-71
2024/04/13 12:26:29;;;;;;;10.45;2.85;;;30.30;93.30;;;;;;5448864;26;20003;-71
2024/04/13 12:28:55;;;;;;;7.28;2.42;;;30.10;93.70;;;;;;5424778;26;20340;-73
2024/04/13 12:31:21;;;;;;;4.82;2.30;;;30.50;93.60;;;;;;5432562;26;20002;-71
2024/04/13 12:33:46;;;;;;;5.97;2.60;;;31.40;92.90;;;;;;5419022;26;19998;-71
2024/04/13 12:36:12;;;;;;;6.63;2.72;;;31.80;92.40;;;;;;5424867;26;20036;-74